createdAt,value
2023-01-21T00:04:08.346Z,101585.94
2023-01-21T00:09:31.065Z,101584.16
2023-01-21T00:14:53.442Z,101578.89
2023-01-21T00:20:19.320Z,101570.13
2023-01-21T00:25:41.816Z,101569.32
2023-01-21T00:31:04.927Z,101568.45
2023-01-21T00:36:32.072Z,101574.59
2023-01-21T00:41:54.351Z,101568.34
2023-01-21T00:47:17.676Z,101584.98
2023-01-21T00:52:40.033Z,101585.80
2023-01-21T00:58:02.469Z,101586.61
2023-01-21T01:03:25.031Z,101573.36
2023-01-21T01:08:47.521Z,101586.52
2023-01-21T01:14:11.160Z,101591.86
2023-01-21T01:19:33.682Z,101600.70
2023-01-21T01:24:55.995Z,101583.97
2023-01-21T01:30:20.280Z,101594.58
2023-01-21T01:35:42.769Z,101587.62
2023-01-21T01:41:06.635Z,101591.12
2023-01-21T01:46:29.879Z,101601.74
2023-01-21T01:51:57.327Z,101606.15
2023-01-21T01:57:24.060Z,101593.73
2023-01-21T02:02:49.295Z,101598.98
2023-01-21T02:08:11.757Z,101596.30
2023-01-21T02:13:38.975Z,101612.05
2023-01-21T02:19:18.293Z,101612.83
2023-01-21T02:24:57.580Z,101599.63
2023-01-21T02:36:39.323Z,101585.27
2023-01-21T02:42:13.104Z,101594.27
2023-01-21T02:47:45.220Z,101591.56
2023-01-21T02:53:30.359Z,101587.03
2023-01-21T02:58:57.705Z,101586.91
2023-01-21T03:04:46.218Z,101575.35
2023-01-21T03:10:17.148Z,101560.28
2023-01-21T03:16:13.639Z,101577.80
2023-01-21T03:21:39.126Z,101586.56
2023-01-21T03:27:04.631Z,101577.80
2023-01-21T03:32:29.730Z,101596.22
2023-01-21T03:38:11.915Z,101577.59
2023-01-21T03:43:34.312Z,101591.61
2023-01-21T03:49:25.875Z,101600.38
2023-01-21T03:54:49.671Z,101596.76
2023-01-21T04:00:13.837Z,101596.59
2023-01-21T04:05:36.336Z,101592.13
2023-01-21T04:10:58.632Z,101583.34
2023-01-21T04:16:21.772Z,101578.85
2023-01-21T04:21:44.191Z,101563.83
2023-01-21T04:27:06.760Z,101553.18
2023-01-21T04:32:29.308Z,101568.13
2023-01-21T04:37:51.776Z,101553.94
2023-01-21T04:43:14.216Z,101544.23
2023-01-21T04:48:36.660Z,101552.05
2023-01-21T04:53:59.086Z,101547.63
2023-01-21T04:59:21.501Z,101552.92
2023-01-21T05:04:43.885Z,101543.22
2023-01-21T05:10:06.695Z,101538.77
2023-01-21T05:15:29.457Z,101554.55
2023-01-21T05:20:51.799Z,101542.16
2023-01-21T05:26:14.363Z,101539.44
2023-01-21T05:31:36.770Z,101543.77
2023-01-21T05:36:59.133Z,101533.12
2023-01-21T05:42:21.391Z,101550.64
2023-01-21T05:47:43.943Z,101548.86
2023-01-21T05:53:06.246Z,101553.17
2023-01-21T05:58:28.951Z,101553.13
2023-01-21T06:03:51.254Z,101530.15
2023-01-21T06:09:13.497Z,101553.05
2023-01-21T06:14:35.722Z,101553.88
2023-01-21T06:19:57.928Z,101547.59
2023-01-21T06:25:20.310Z,101540.48
2023-01-21T06:30:43.411Z,101553.55
2023-01-21T06:36:05.722Z,101549.87
2023-01-21T06:41:28.085Z,101548.09
2023-01-21T06:47:00.697Z,101553.34
2023-01-21T06:52:14.906Z,101556.86
2023-01-21T06:57:38.971Z,101544.53
2023-01-21T07:03:04.829Z,101541.88
2023-01-21T07:08:27.144Z,101552.47
2023-01-21T07:13:49.496Z,101552.47
2023-01-21T07:19:11.846Z,101537.59
2023-01-21T07:24:34.810Z,101535.23
2023-01-21T07:29:57.370Z,101509.89
2023-01-21T07:35:20.420Z,101518.70
2023-01-21T07:40:42.943Z,101514.12
2023-01-21T07:46:06.289Z,101496.34
2023-01-21T07:51:28.794Z,101483.76
2023-01-21T07:56:51.270Z,101482.77
2023-01-21T08:02:13.892Z,101479.16
2023-01-21T08:07:36.498Z,101480.29
2023-01-21T08:13:02.288Z,101486.92
2023-01-21T08:18:24.555Z,101463.62
2023-01-21T08:23:47.093Z,101460.31
2023-01-21T08:29:11.266Z,101461.22
2023-01-21T08:34:34.413Z,101447.09
2023-01-21T08:39:56.678Z,101429.54
2023-01-21T08:45:20.832Z,101441.15
2023-01-21T08:50:43.826Z,101431.59
2023-01-21T08:56:07.207Z,101429.91
2023-01-21T09:01:31.324Z,101428.25
2023-01-21T09:06:53.880Z,101429.28
2023-01-21T09:12:18.156Z,101358.06
2023-01-21T09:17:41.479Z,101391.58
2023-01-21T09:28:42.730Z,101409.80
2023-01-21T09:34:10.250Z,101403.92
2023-01-21T09:39:32.951Z,101388.11
2023-01-21T09:44:58.574Z,101394.41
2023-01-21T09:50:38.713Z,101395.33
2023-01-21T09:56:04.089Z,101388.38
2023-01-21T10:01:43.110Z,101394.65
2023-01-21T10:07:32.891Z,101400.01
2023-01-21T10:13:17.625Z,101393.89
2023-01-21T10:18:47.335Z,101399.25
2023-01-21T10:24:19.809Z,101404.53
2023-01-21T10:29:43.621Z,101424.76
2023-01-21T10:35:12.163Z,101440.78
2023-01-21T10:40:48.626Z,101458.36
2023-01-21T10:46:54.990Z,101450.47
2023-01-21T10:52:37.382Z,101434.63
2023-01-21T10:58:29.166Z,101434.67
2023-01-21T11:04:09.546Z,101409.81
2023-01-21T11:09:34.951Z,101408.23
2023-01-21T11:15:07.588Z,101404.68
2023-01-21T11:20:48.465Z,101399.33
2023-01-21T11:26:16.596Z,101403.67
2023-01-21T11:31:41.447Z,101397.62
2023-01-21T11:37:28.620Z,101355.34
2023-01-21T11:43:07.792Z,101393.97
2023-01-21T11:48:35.652Z,101379.00
2023-01-21T11:54:00.086Z,101393.94
2023-01-21T11:59:42.937Z,101393.03
2023-01-21T12:05:15.618Z,101393.86
2023-01-21T12:10:50.731Z,101394.80
2023-01-21T12:16:42.325Z,101396.61
2023-01-21T12:22:21.041Z,101395.70
2023-01-21T12:27:56.289Z,101399.22
2023-01-21T12:33:38.330Z,101386.91
2023-01-21T12:39:09.115Z,101399.25
2023-01-21T12:45:05.486Z,101381.33
2023-01-21T12:50:47.049Z,101399.22
2023-01-21T12:56:48.166Z,101397.44
2023-01-21T13:02:23.422Z,101407.14
2023-01-21T13:08:12.972Z,101411.55
2023-01-21T13:14:03.211Z,101415.09
2023-01-21T13:19:27.157Z,101413.36
2023-01-21T13:25:14.291Z,101421.28
2023-01-21T13:31:01.209Z,101422.23
2023-01-21T13:36:47.912Z,101443.35
2023-01-21T13:42:16.100Z,101442.55
2023-01-21T13:48:11.780Z,101454.02
2023-01-21T13:54:10.686Z,101451.38
2023-01-21T13:59:56.266Z,101464.37
2023-01-21T14:05:47.420Z,101487.48
2023-01-21T14:11:14.600Z,101481.36
2023-01-21T14:16:50.309Z,101474.30
2023-01-21T14:22:56.566Z,101484.84
2023-01-21T14:28:38.715Z,101495.43
2023-01-21T14:34:26.813Z,101512.14
2023-01-21T14:40:03.443Z,101523.60
2023-01-21T14:45:28.480Z,101530.62
2023-01-21T14:51:23.513Z,101527.95
2023-01-21T14:56:48.672Z,101530.62
2023-01-21T15:02:42.341Z,101531.46
2023-01-21T15:08:14.440Z,101549.97
2023-01-21T15:13:48.420Z,101561.38
2023-01-21T15:19:38.211Z,101567.56
2023-01-21T15:25:31.339Z,101574.41
2023-01-21T15:31:08.617Z,101584.30
2023-01-21T15:36:37.223Z,101596.60
2023-01-21T15:42:25.105Z,101594.86
2023-01-21T15:48:36.482Z,101598.38
2023-01-21T15:54:17.027Z,101607.16
2023-01-21T15:59:56.533Z,101624.77
2023-01-21T16:05:41.702Z,101627.39
2023-01-21T16:11:24.189Z,101637.08
2023-01-21T16:17:15.886Z,101642.39
2023-01-21T16:22:41.964Z,101644.13
2023-01-21T16:28:07.471Z,101660.87
2023-01-21T16:33:31.514Z,101659.16
2023-01-21T16:38:57.409Z,101667.08
2023-01-21T16:44:22.993Z,101668.82
2023-01-21T16:49:48.221Z,101671.52
2023-01-21T16:55:16.873Z,101664.50
2023-01-21T17:00:48.275Z,101683.88
2023-01-21T17:06:27.604Z,101693.55
2023-01-21T17:11:52.768Z,101694.44
2023-01-21T17:17:20.248Z,101705.00
2023-01-21T17:22:46.852Z,101717.30
2023-01-21T17:28:24.334Z,101719.95
2023-01-21T17:33:48.262Z,101735.76
2023-01-21T17:39:11.805Z,101748.06
2023-01-21T17:44:39.519Z,101743.65
2023-01-21T17:50:15.828Z,101762.13
2023-01-21T17:55:54.283Z,101762.13
2023-01-21T18:01:18.860Z,101779.72
2023-01-21T18:06:42.793Z,101780.59
2023-01-21T18:12:10.637Z,101790.28
2023-01-21T18:17:40.313Z,101800.00
2023-01-21T18:23:04.662Z,101796.48
2023-01-21T18:28:36.693Z,101810.59
2023-01-21T18:33:59.554Z,101817.65
2023-01-21T18:39:27.423Z,101825.57
2023-01-21T18:44:50.113Z,101837.92
2023-01-21T18:50:12.852Z,101836.18
2023-01-21T18:55:43.693Z,101829.16
2023-01-21T19:01:17.185Z,101842.36
2023-01-21T19:06:31.503Z,101848.51
2023-01-21T19:11:53.920Z,101849.41
2023-01-21T19:17:18.057Z,101867.02
2023-01-21T19:22:40.506Z,101868.78
2023-01-21T19:28:09.062Z,101873.19
2023-01-21T19:33:31.799Z,101880.21
2023-01-21T19:38:57.798Z,101872.31
2023-01-21T19:44:20.237Z,101888.13
2023-01-21T19:49:42.724Z,101900.46
2023-01-21T19:55:06.024Z,101903.08
2023-01-21T20:00:46.083Z,101911.02
2023-01-21T20:06:15.229Z,101913.69
2023-01-21T20:11:37.742Z,101923.34
2023-01-21T20:17:04.556Z,101927.73
2023-01-21T20:22:27.108Z,101936.55
2023-01-21T20:27:50.027Z,101947.98
2023-01-21T20:33:12.352Z,101951.52
2023-01-21T20:38:38.696Z,101962.05
2023-01-21T20:44:04.544Z,101971.77
2023-01-21T20:49:30.868Z,101976.14
2023-01-21T20:54:53.300Z,101976.14
2023-01-21T21:00:23.581Z,101994.62
2023-01-21T21:05:46.744Z,101991.98
2023-01-21T21:11:09.226Z,101998.14
2023-01-21T21:16:38.202Z,102012.22
2023-01-21T21:22:00.508Z,102007.83
2023-01-21T21:27:23.823Z,102014.86
2023-01-21T21:32:46.194Z,102007.81
2023-01-21T21:38:12.394Z,102035.10
2023-01-21T21:43:41.976Z,102024.56
2023-01-21T21:49:05.524Z,102030.72
2023-01-21T21:54:29.152Z,102040.38
2023-01-21T21:59:51.541Z,102039.51
2023-01-21T22:05:14.318Z,102051.81
2023-01-21T22:10:36.724Z,102048.28
2023-01-21T22:16:04.370Z,102057.09
2023-01-21T22:21:32.323Z,102065.89
2023-01-21T22:26:54.818Z,102060.61
2023-01-21T22:32:17.828Z,102072.05
2023-01-21T22:37:40.254Z,102072.05
2023-01-21T22:43:02.821Z,102072.92
2023-01-21T22:48:25.202Z,102080.84
2023-01-21T22:53:48.350Z,102091.38
2023-01-21T22:59:11.002Z,102093.16
2023-01-21T23:04:33.277Z,102090.55
2023-01-21T23:09:55.692Z,102106.38
2023-01-21T23:15:18.217Z,102105.51
2023-01-21T23:20:42.954Z,102108.17
2023-01-21T23:26:06.416Z,102115.21
2023-01-21T23:31:33.434Z,102110.81
2023-01-21T23:36:55.826Z,102121.35
2023-01-21T23:42:19.825Z,102122.24
2023-01-21T23:47:42.195Z,102127.50
2023-01-21T23:53:04.501Z,102129.27
2023-01-21T23:58:26.736Z,102137.20
